createdAt,value
2022-12-16T00:01:35.348Z,16.83
2022-12-16T00:04:02.786Z,16.08
2022-12-16T00:06:32.618Z,15.45
2022-12-16T00:09:00.783Z,16.15
2022-12-16T00:11:28.510Z,15.20
2022-12-16T00:13:55.403Z,16.30
2022-12-16T00:16:22.553Z,15.65
2022-12-16T00:18:49.686Z,16.83
2022-12-16T00:21:19.188Z,16.30
2022-12-16T00:23:46.270Z,16.00
2022-12-16T00:26:13.943Z,15.02
2022-12-16T00:28:43.835Z,17.45
2022-12-16T00:31:11.363Z,14.98
2022-12-16T00:33:38.678Z,13.85
2022-12-16T00:36:06.455Z,15.93
2022-12-16T00:38:33.786Z,14.70
2022-12-16T00:41:00.867Z,15.85
2022-12-16T00:43:27.748Z,16.00
2022-12-16T00:45:55.138Z,15.18
2022-12-16T00:48:23.178Z,15.02
2022-12-16T00:50:51.954Z,16.48
2022-12-16T00:53:19.658Z,16.15
2022-12-16T00:55:46.652Z,14.93
2022-12-16T00:58:14.001Z,16.15
2022-12-16T01:00:41.234Z,14.82
2022-12-16T01:03:08.975Z,15.90
2022-12-16T01:05:38.877Z,14.82
2022-12-16T01:08:06.297Z,14.60
2022-12-16T01:10:33.631Z,15.80
2022-12-16T01:13:00.899Z,14.98
2022-12-16T01:15:27.832Z,14.90
2022-12-16T01:17:54.656Z,15.73
2022-12-16T01:20:22.305Z,14.25
2022-12-16T01:22:49.575Z,15.30
2022-12-16T01:25:17.800Z,17.42
2022-12-16T01:27:45.087Z,15.70
2022-12-16T01:30:12.651Z,14.48
2022-12-16T01:32:39.972Z,13.48
2022-12-16T01:35:18.118Z,15.50
2022-12-16T01:37:54.905Z,15.00
2022-12-16T01:40:24.293Z,14.38
2022-12-16T01:42:51.591Z,13.77
2022-12-16T01:45:27.220Z,14.63
2022-12-16T01:47:58.335Z,15.85
2022-12-16T01:50:26.255Z,14.95
2022-12-16T01:52:57.458Z,14.27
2022-12-16T01:55:46.868Z,15.45
2022-12-16T01:58:25.916Z,14.88
2022-12-16T02:00:53.422Z,15.40
2022-12-16T02:03:22.522Z,16.23
2022-12-16T02:05:49.929Z,15.40
2022-12-16T02:08:19.213Z,14.98
2022-12-16T02:11:11.793Z,15.52
2022-12-16T02:13:50.973Z,14.18
2022-12-16T02:19:52.433Z,14.25
2022-12-16T02:23:00.859Z,14.60
2022-12-16T02:25:34.085Z,13.75
2022-12-16T02:28:42.830Z,14.15
2022-12-16T02:31:28.632Z,12.13
2022-12-16T02:34:18.298Z,12.23
2022-12-16T02:37:32.692Z,13.68
2022-12-16T02:40:06.357Z,11.25
2022-12-16T02:43:10.939Z,14.38
2022-12-16T02:45:38.837Z,11.98
2022-12-16T02:48:06.380Z,13.10
2022-12-16T02:50:41.140Z,13.68
2022-12-16T02:53:09.769Z,13.85
2022-12-16T02:55:44.863Z,12.68
2022-12-16T02:58:43.680Z,11.65
2022-12-16T03:01:55.481Z,12.68
2022-12-16T03:04:22.817Z,12.13
2022-12-16T03:06:51.462Z,13.50
2022-12-16T03:09:24.296Z,14.27
2022-12-16T03:11:54.297Z,12.88
2022-12-16T03:16:50.301Z,11.02
2022-12-16T03:19:17.668Z,11.75
2022-12-16T03:21:52.644Z,12.50
2022-12-16T03:24:19.969Z,13.75
2022-12-16T03:26:50.116Z,15.68
2022-12-16T03:29:22.869Z,16.33
2022-12-16T03:32:09.571Z,15.48
2022-12-16T03:34:42.685Z,14.82
2022-12-16T03:37:12.064Z,16.17
2022-12-16T03:39:44.545Z,14.40
2022-12-16T03:42:12.846Z,12.38
2022-12-16T03:44:40.128Z,11.95
2022-12-16T03:47:07.433Z,11.55
2022-12-16T03:49:34.753Z,11.93
2022-12-16T03:52:02.203Z,11.85
2022-12-16T03:54:29.480Z,11.98
2022-12-16T03:56:57.018Z,13.07
2022-12-16T03:59:24.460Z,13.38
2022-12-16T04:01:51.834Z,12.88
2022-12-16T04:04:19.232Z,16.13
2022-12-16T04:07:06.478Z,15.65
2022-12-16T04:09:33.780Z,14.57
2022-12-16T04:12:19.797Z,15.13
2022-12-16T04:15:05.572Z,13.10
2022-12-16T04:17:51.613Z,13.63
2022-12-16T04:20:39.315Z,14.90
2022-12-16T04:23:25.135Z,14.18
2022-12-16T04:25:52.469Z,12.10
2022-12-16T04:28:19.791Z,12.45
2022-12-16T04:30:47.276Z,13.02
2022-12-16T04:33:34.143Z,15.07
2022-12-16T04:36:20.435Z,15.52
2022-12-16T04:39:06.351Z,13.73
2022-12-16T04:41:52.239Z,14.27
2022-12-16T04:44:38.039Z,12.70
2022-12-16T04:47:24.389Z,13.57
2022-12-16T04:50:10.347Z,11.90
2022-12-16T04:52:56.205Z,12.40
2022-12-16T04:55:42.149Z,12.45
2022-12-16T04:58:28.111Z,13.45
2022-12-16T05:01:14.106Z,15.55
2022-12-16T05:04:00.006Z,12.40
2022-12-16T05:06:53.815Z,14.25
2022-12-16T05:09:39.540Z,16.65
2022-12-16T05:12:25.618Z,16.27
2022-12-16T05:15:11.411Z,15.48
2022-12-16T05:17:57.428Z,17.42
2022-12-16T05:20:43.296Z,17.20
2022-12-16T05:23:29.339Z,15.95
2022-12-16T05:26:15.363Z,18.33
2022-12-16T05:29:01.050Z,16.60
2022-12-16T05:31:47.006Z,16.52
2022-12-16T05:34:33.095Z,17.17
2022-12-16T05:37:18.875Z,17.38
2022-12-16T05:40:04.717Z,17.33
2022-12-16T05:42:50.555Z,18.48
2022-12-16T05:45:36.534Z,17.20
2022-12-16T05:48:22.482Z,17.65
2022-12-16T05:51:08.394Z,17.67
2022-12-16T05:53:55.610Z,17.10
2022-12-16T05:56:41.490Z,17.33
2022-12-16T05:59:27.366Z,17.02
2022-12-16T06:02:13.256Z,15.85
2022-12-16T06:04:59.197Z,15.35
2022-12-16T06:07:45.138Z,13.82
2022-12-16T06:10:31.032Z,14.35
2022-12-16T06:13:16.868Z,15.40
2022-12-16T06:16:08.415Z,14.25
2022-12-16T06:18:55.100Z,13.88
2022-12-16T06:21:40.922Z,15.20
2022-12-16T06:24:26.827Z,16.25
2022-12-16T06:27:12.968Z,15.00
2022-12-16T06:29:58.781Z,15.00
2022-12-16T06:32:44.920Z,17.23
2022-12-16T06:35:30.865Z,14.63
2022-12-16T06:38:16.735Z,15.88
2022-12-16T06:41:02.698Z,15.10
2022-12-16T06:43:48.503Z,16.40
2022-12-16T06:46:34.283Z,18.27
2022-12-16T06:49:20.691Z,15.25
2022-12-16T06:52:06.518Z,16.45
2022-12-16T06:54:52.519Z,16.23
2022-12-16T06:57:38.528Z,15.57
2022-12-16T07:00:24.706Z,15.82
2022-12-16T07:03:10.594Z,16.90
2022-12-16T07:05:56.333Z,17.50
2022-12-16T07:08:42.343Z,18.70
2022-12-16T07:11:28.234Z,17.05
2022-12-16T07:14:14.003Z,17.95
2022-12-16T07:16:59.834Z,16.30
2022-12-16T07:19:45.836Z,17.58
2022-12-16T07:22:31.670Z,15.10
2022-12-16T07:25:17.414Z,16.48
2022-12-16T07:28:12.182Z,14.57
2022-12-16T07:31:02.066Z,14.15
2022-12-16T07:33:47.965Z,14.45
2022-12-16T07:36:33.862Z,14.27
2022-12-16T07:39:19.724Z,13.63
2022-12-16T07:42:05.536Z,13.93
2022-12-16T07:44:51.743Z,15.55
2022-12-16T07:47:37.697Z,15.27
2022-12-16T07:50:23.678Z,15.07
2022-12-16T07:53:16.641Z,16.30
2022-12-16T07:56:05.073Z,15.43
2022-12-16T07:58:54.027Z,15.30
2022-12-16T08:01:52.718Z,15.85
2022-12-16T08:04:41.858Z,15.68
2022-12-16T08:07:28.196Z,15.52
2022-12-16T08:10:14.120Z,16.23
2022-12-16T08:13:02.034Z,15.00
2022-12-16T08:15:57.555Z,17.85
2022-12-16T08:18:51.327Z,17.23
2022-12-16T08:21:38.654Z,16.70
2022-12-16T08:24:24.827Z,15.90
2022-12-16T08:27:10.851Z,18.02
2022-12-16T08:29:56.779Z,16.20
2022-12-16T08:32:42.910Z,16.48
2022-12-16T08:35:28.703Z,17.40
2022-12-16T08:38:15.102Z,17.15
2022-12-16T08:41:02.128Z,16.67
2022-12-16T08:43:51.593Z,18.20
2022-12-16T08:46:37.643Z,20.10
2022-12-16T08:49:24.497Z,19.77
2022-12-16T08:52:10.474Z,18.42
2022-12-16T08:55:01.733Z,19.90
2022-12-16T08:57:51.953Z,20.00
2022-12-16T09:00:38.024Z,17.95
2022-12-16T09:03:26.564Z,18.38
2022-12-16T09:06:26.120Z,20.23
2022-12-16T09:09:21.669Z,19.35
2022-12-16T09:12:10.821Z,17.10
2022-12-16T09:15:08.291Z,19.40
2022-12-16T09:17:54.809Z,19.45
2022-12-16T09:20:42.394Z,17.23
2022-12-16T09:23:29.968Z,17.27
2022-12-16T09:26:31.109Z,16.73
2022-12-16T09:29:24.780Z,17.42
2022-12-16T09:32:18.753Z,16.85
2022-12-16T09:35:13.625Z,18.55
2022-12-16T09:45:37.759Z,18.70
2022-12-16T09:52:24.610Z,19.50
2022-12-16T09:58:47.060Z,17.77
2022-12-16T10:01:33.133Z,17.30
2022-12-16T10:04:19.404Z,17.67
2022-12-16T10:07:11.753Z,17.30
2022-12-16T10:10:27.190Z,18.50
2022-12-16T10:13:24.232Z,18.45
2022-12-16T10:16:34.726Z,17.50
2022-12-16T10:19:55.360Z,17.23
2022-12-16T10:23:11.566Z,15.82
2022-12-16T10:26:00.182Z,15.35
2022-12-16T10:29:06.669Z,18.08
2022-12-16T10:31:53.055Z,20.15
2022-12-16T10:34:47.300Z,15.63
2022-12-16T10:37:54.009Z,17.73
2022-12-16T10:47:37.745Z,15.95
2022-12-16T10:50:24.350Z,17.08
2022-12-16T10:53:21.207Z,16.27
2022-12-16T10:56:46.677Z,16.15
2022-12-16T10:59:33.205Z,19.15
2022-12-16T11:02:24.421Z,16.83
2022-12-16T11:05:10.469Z,17.85
2022-12-16T11:08:12.815Z,17.77
2022-12-16T11:11:00.956Z,17.67
2022-12-16T11:13:55.028Z,16.60
2022-12-16T11:16:42.027Z,16.83
2022-12-16T11:19:45.587Z,17.38
2022-12-16T11:22:37.116Z,17.85
2022-12-16T11:25:43.083Z,16.52
2022-12-16T11:28:36.392Z,15.82
2022-12-16T11:31:30.081Z,15.07
2022-12-16T11:34:22.952Z,16.73
2022-12-16T11:37:18.176Z,15.23
2022-12-16T11:40:08.998Z,16.42
2022-12-16T11:43:00.176Z,16.35
2022-12-16T11:46:05.467Z,17.73
2022-12-16T11:49:01.909Z,18.75
2022-12-16T11:51:50.745Z,16.40
2022-12-16T11:54:44.892Z,18.98
2022-12-16T11:58:18.428Z,16.58
2022-12-16T12:01:12.879Z,16.27
2022-12-16T12:04:15.624Z,17.63
2022-12-16T12:07:05.173Z,17.85
2022-12-16T12:10:10.606Z,17.27
2022-12-16T12:13:31.030Z,17.70
2022-12-16T12:16:47.131Z,18.52
2022-12-16T12:19:43.967Z,18.75
2022-12-16T12:22:57.327Z,17.90
2022-12-16T12:26:17.662Z,19.20
2022-12-16T12:29:25.925Z,18.50
2022-12-16T12:32:20.881Z,21.00
2022-12-16T12:35:19.223Z,19.75
2022-12-16T12:38:20.752Z,20.48
2022-12-16T12:41:06.700Z,19.17
2022-12-16T12:44:04.614Z,18.48
2022-12-16T12:47:24.090Z,18.10
2022-12-16T12:50:21.959Z,20.65
2022-12-16T12:53:36.039Z,18.88
2022-12-16T12:56:56.326Z,20.55
2022-12-16T13:00:06.907Z,18.30
2022-12-16T13:03:08.331Z,19.75
2022-12-16T13:05:58.070Z,19.80
2022-12-16T13:09:03.374Z,19.40
2022-12-16T13:11:49.822Z,21.25
2022-12-16T13:14:50.420Z,23.63
2022-12-16T13:17:41.911Z,19.63
2022-12-16T13:20:52.614Z,19.55
2022-12-16T13:23:47.162Z,23.67
2022-12-16T13:26:41.529Z,22.42
2022-12-16T13:29:45.439Z,23.02
2022-12-16T13:32:31.230Z,22.30
2022-12-16T13:35:24.705Z,20.35
2022-12-16T13:38:13.979Z,19.52
2022-12-16T13:41:19.602Z,22.17
2022-12-16T13:44:15.001Z,21.48
2022-12-16T13:47:08.855Z,21.30
2022-12-16T13:50:44.917Z,19.75
2022-12-16T13:53:54.255Z,19.75
2022-12-16T13:56:54.881Z,19.83
2022-12-16T13:59:43.975Z,15.73
2022-12-16T14:02:42.093Z,17.88
2022-12-16T14:05:42.442Z,18.45
2022-12-16T14:11:21.876Z,15.52
2022-12-16T14:14:25.062Z,15.85
2022-12-16T14:17:19.185Z,16.40
2022-12-16T14:20:36.448Z,15.60
2022-12-16T14:23:57.703Z,16.00
2022-12-16T14:26:45.120Z,15.80
2022-12-16T14:29:42.182Z,15.20
2022-12-16T14:32:48.927Z,14.65
2022-12-16T14:35:46.159Z,16.80
2022-12-16T14:38:47.289Z,18.17
2022-12-16T14:41:39.229Z,17.88
2022-12-16T14:44:36.059Z,17.60
2022-12-16T14:47:24.371Z,16.70
2022-12-16T14:50:18.367Z,15.68
2022-12-16T14:53:04.655Z,15.38
2022-12-16T14:55:57.153Z,15.30
2022-12-16T14:58:50.216Z,14.15
2022-12-16T15:01:46.445Z,15.30
2022-12-16T15:04:41.108Z,15.32
2022-12-16T15:07:38.032Z,16.98
2022-12-16T15:10:25.491Z,15.57
2022-12-16T15:13:14.461Z,17.30
2022-12-16T15:16:09.536Z,15.20
2022-12-16T15:19:02.623Z,16.05
2022-12-16T15:21:48.962Z,16.10
2022-12-16T15:24:40.043Z,15.95
2022-12-16T15:27:40.638Z,15.10
2022-12-16T15:30:55.249Z,15.43
2022-12-16T15:33:49.472Z,14.57
2022-12-16T15:36:48.450Z,15.95
2022-12-16T15:39:37.033Z,16.40
2022-12-16T15:42:23.323Z,17.02
2022-12-16T15:45:10.130Z,14.82
2022-12-16T15:47:56.870Z,16.38
2022-12-16T15:50:45.727Z,14.73
2022-12-16T15:54:06.063Z,16.05
2022-12-16T15:57:03.097Z,14.65
2022-12-16T15:59:55.024Z,16.17
2022-12-16T16:02:44.095Z,15.88
2022-12-16T16:05:36.334Z,17.03
2022-12-16T16:08:22.177Z,13.50
2022-12-16T16:11:08.267Z,15.40
2022-12-16T16:13:56.794Z,15.90
2022-12-16T16:16:44.573Z,15.93
2022-12-16T16:19:42.147Z,14.50
2022-12-16T16:22:31.139Z,16.73
2022-12-16T16:25:16.966Z,15.05
2022-12-16T16:28:02.818Z,17.58
2022-12-16T16:30:48.647Z,15.10
2022-12-16T16:36:12.032Z,14.82
2022-12-16T16:38:57.872Z,14.73
2022-12-16T16:41:44.205Z,15.07
2022-12-16T16:44:30.051Z,15.18
2022-12-16T16:47:16.684Z,15.63
2022-12-16T16:50:05.677Z,14.82
2022-12-16T16:52:51.598Z,13.80
2022-12-16T16:55:46.027Z,12.88
2022-12-16T16:58:52.919Z,12.63
2022-12-16T17:01:40.687Z,11.77
2022-12-16T17:04:29.927Z,11.63
2022-12-16T17:07:15.908Z,12.00
2022-12-16T17:10:04.435Z,12.35
2022-12-16T17:13:04.486Z,11.82
2022-12-16T17:15:52.229Z,12.95
2022-12-16T17:18:45.671Z,13.63
2022-12-16T17:21:32.789Z,13.27
2022-12-16T17:24:21.637Z,12.25
2022-12-16T17:27:10.875Z,12.40
2022-12-16T17:29:59.421Z,12.32
2022-12-16T17:32:45.235Z,11.95
2022-12-16T17:35:31.375Z,13.35
2022-12-16T17:41:38.485Z,13.65
2022-12-16T17:44:38.845Z,12.68
2022-12-16T17:47:27.742Z,13.75
2022-12-16T17:50:14.491Z,16.95
2022-12-16T17:53:00.771Z,16.52
2022-12-16T17:55:51.674Z,15.50
2022-12-16T17:58:37.786Z,17.30
2022-12-16T18:01:25.278Z,17.30
2022-12-16T18:04:11.558Z,15.25
2022-12-16T18:06:57.441Z,13.40
2022-12-16T18:09:44.009Z,11.70
2022-12-16T18:12:30.934Z,12.45
2022-12-16T18:15:16.839Z,12.35
2022-12-16T18:18:06.559Z,11.18
2022-12-16T18:20:53.220Z,12.48
2022-12-16T18:23:41.679Z,12.73
2022-12-16T18:26:29.068Z,13.63
2022-12-16T18:29:16.860Z,11.93
2022-12-16T18:32:02.917Z,12.57
2022-12-16T18:34:48.828Z,11.07
2022-12-16T18:37:37.174Z,13.07
2022-12-16T18:40:26.295Z,12.40
2022-12-16T18:43:14.733Z,12.50
2022-12-16T18:49:22.408Z,12.38
2022-12-16T18:55:11.325Z,14.13
2022-12-16T18:57:57.197Z,14.00
2022-12-16T19:00:43.481Z,14.15
2022-12-16T19:03:29.827Z,13.93
2022-12-16T19:06:16.549Z,15.25
2022-12-16T19:09:02.737Z,15.32
2022-12-16T19:11:48.770Z,15.27
2022-12-16T19:14:34.998Z,13.93
2022-12-16T19:17:20.908Z,15.27
2022-12-16T19:20:07.063Z,14.40
2022-12-16T19:22:53.448Z,13.95
2022-12-16T19:25:40.754Z,14.50
2022-12-16T19:28:32.800Z,14.90
2022-12-16T19:31:19.348Z,14.23
2022-12-16T19:34:05.384Z,14.02
2022-12-16T19:36:51.997Z,14.63
2022-12-16T19:39:38.219Z,13.15
2022-12-16T19:42:24.013Z,14.02
2022-12-16T19:45:09.965Z,14.63
2022-12-16T19:47:56.341Z,13.15
2022-12-16T19:50:42.683Z,15.05
2022-12-16T19:53:28.774Z,14.93
2022-12-16T19:56:17.930Z,14.30
2022-12-16T19:59:03.787Z,14.70
2022-12-16T20:01:50.116Z,15.32
2022-12-16T20:04:36.134Z,14.45
2022-12-16T20:07:23.407Z,14.90
2022-12-16T20:10:09.414Z,14.23
2022-12-16T20:12:56.200Z,17.15
2022-12-16T20:15:42.058Z,17.17
2022-12-16T20:18:28.251Z,16.65
2022-12-16T20:21:14.146Z,15.13
2022-12-16T20:23:59.891Z,17.45
2022-12-16T20:26:47.701Z,16.88
2022-12-16T20:29:33.661Z,17.30
2022-12-16T20:32:19.917Z,17.10
2022-12-16T20:35:05.748Z,15.27
2022-12-16T20:37:51.745Z,15.65
2022-12-16T20:40:37.729Z,17.80
2022-12-16T20:43:25.635Z,18.00
2022-12-16T20:46:15.141Z,19.63
2022-12-16T20:49:01.349Z,16.55
2022-12-16T20:51:47.601Z,15.60
2022-12-16T20:54:33.764Z,15.82
2022-12-16T20:57:19.648Z,14.45
2022-12-16T21:00:05.598Z,15.52
2022-12-16T21:02:53.514Z,15.30
2022-12-16T21:05:39.874Z,13.80
2022-12-16T21:08:25.831Z,15.00
2022-12-16T21:11:15.931Z,14.85
2022-12-16T21:16:47.471Z,14.23
2022-12-16T21:22:38.954Z,15.23
2022-12-16T21:25:25.330Z,15.60
2022-12-16T21:28:15.368Z,16.55
2022-12-16T21:33:47.143Z,14.65
2022-12-16T21:36:33.501Z,15.85
2022-12-16T21:39:19.437Z,17.35
2022-12-16T21:42:05.710Z,16.08
2022-12-16T21:44:51.776Z,17.45
2022-12-16T21:47:37.663Z,16.27
2022-12-16T21:50:24.079Z,17.00
2022-12-16T21:53:10.029Z,15.65
2022-12-16T21:55:55.752Z,15.65
2022-12-16T21:58:42.963Z,17.88
2022-12-16T22:01:29.019Z,16.38
2022-12-16T22:04:15.178Z,15.70
2022-12-16T22:07:01.471Z,16.58
2022-12-16T22:09:47.181Z,16.30
2022-12-16T22:12:33.647Z,16.35
2022-12-16T22:15:19.796Z,16.10
2022-12-16T22:18:05.667Z,15.27
2022-12-16T22:20:51.849Z,15.02
2022-12-16T22:23:38.146Z,15.07
2022-12-16T22:26:24.481Z,15.25
2022-12-16T22:29:13.177Z,16.02
2022-12-16T22:31:59.399Z,14.38
2022-12-16T22:34:45.421Z,14.68
2022-12-16T22:37:31.892Z,17.02
2022-12-16T22:40:17.738Z,16.05
2022-12-16T22:43:03.698Z,14.70
2022-12-16T22:46:05.604Z,15.30
2022-12-16T22:48:51.881Z,14.77
2022-12-16T22:51:37.334Z,13.35
2022-12-16T22:54:23.108Z,15.75
2022-12-16T22:57:08.275Z,15.25
2022-12-16T22:59:54.173Z,15.75
2022-12-16T23:02:42.952Z,16.77
2022-12-16T23:05:29.196Z,15.52
2022-12-16T23:08:14.929Z,16.58
2022-12-16T23:11:01.219Z,16.83
2022-12-16T23:13:47.055Z,18.42
2022-12-16T23:16:33.698Z,17.25
2022-12-16T23:19:19.184Z,15.82
2022-12-16T23:22:06.602Z,16.83
2022-12-16T23:24:52.038Z,15.52
2022-12-16T23:27:37.902Z,16.75
2022-12-16T23:30:23.951Z,17.13
2022-12-16T23:33:16.507Z,17.00
2022-12-16T23:36:01.798Z,15.93
2022-12-16T23:38:47.308Z,17.08
2022-12-16T23:41:32.704Z,16.85
2022-12-16T23:44:18.549Z,17.20
2022-12-16T23:47:03.753Z,17.25
2022-12-16T23:49:49.159Z,18.13
2022-12-16T23:52:34.940Z,18.98
2022-12-16T23:55:20.397Z,16.35
2022-12-16T23:58:05.664Z,17.27
